sensor_id;sensor_type;location;lat;lon;timestamp;temperature;humidity
17984;DHT22;9117;52.420;20.728;2023-04-09T00:01:06;8.10;95.10
17984;DHT22;9117;52.420;20.728;2023-04-09T00:03:37;8.00;91.30
17984;DHT22;9117;52.420;20.728;2023-04-09T00:06:06;8.00;99.90
17984;DHT22;9117;52.420;20.728;2023-04-09T00:08:34;8.00;99.10
17984;DHT22;9117;52.420;20.728;2023-04-09T00:11:03;8.00;99.90
17984;DHT22;9117;52.420;20.728;2023-04-09T00:13:31;7.90;96.70
17984;DHT22;9117;52.420;20.728;2023-04-09T00:16:05;7.90;99.40
17984;DHT22;9117;52.420;20.728;2023-04-09T00:18:36;7.90;97.80
17984;DHT22;9117;52.420;20.728;2023-04-09T00:21:04;8.00;96.20
17984;DHT22;9117;52.420;20.728;2023-04-09T00:23:34;8.00;99.90
17984;DHT22;9117;52.420;20.728;2023-04-09T00:26:02;8.00;99.90
17984;DHT22;9117;52.420;20.728;2023-04-09T00:28:30;8.00;99.90
17984;DHT22;9117;52.420;20.728;2023-04-09T00:30:59;8.10;99.90
17984;DHT22;9117;52.420;20.728;2023-04-09T00:33:27;8.10;99.90
17984;DHT22;9117;52.420;20.728;2023-04-09T00:35:56;8.10;99.90
17984;DHT22;9117;52.420;20.728;2023-04-09T00:38:25;8.00;99.90
17984;DHT22;9117;52.420;20.728;2023-04-09T00:40:53;8.10;91.20
17984;DHT22;9117;52.420;20.728;2023-04-09T00:43:21;8.10;95.40
17984;DHT22;9117;52.420;20.728;2023-04-09T00:45:49;8.10;92.80
17984;DHT22;9117;52.420;20.728;2023-04-09T00:48:18;8.10;90.80
17984;DHT22;9117;52.420;20.728;2023-04-09T00:50:46;8.10;88.00
17984;DHT22;9117;52.420;20.728;2023-04-09T00:53:16;8.10;92.90
17984;DHT22;9117;52.420;20.728;2023-04-09T00:55:45;8.10;98.70
17984;DHT22;9117;52.420;20.728;2023-04-09T00:58:13;8.10;99.90
17984;DHT22;9117;52.420;20.728;2023-04-09T01:00:41;8.10;99.90
17984;DHT22;9117;52.420;20.728;2023-04-09T01:03:09;8.10;99.20
17984;DHT22;9117;52.420;20.728;2023-04-09T01:05:42;8.10;97.00
17984;DHT22;9117;52.420;20.728;2023-04-09T01:08:18;8.10;91.70
17984;DHT22;9117;52.420;20.728;2023-04-09T01:10:53;8.00;66.90
17984;DHT22;9117;52.420;20.728;2023-04-09T01:13:29;8.00;79.60
17984;DHT22;9117;52.420;20.728;2023-04-09T01:16:00;8.00;83.90
17984;DHT22;9117;52.420;20.728;2023-04-09T01:18:32;8.00;76.60
17984;DHT22;9117;52.420;20.728;2023-04-09T01:21:06;7.90;67.90
17984;DHT22;9117;52.420;20.728;2023-04-09T01:23:45;7.90;71.80
17984;DHT22;9117;52.420;20.728;2023-04-09T01:26:22;7.90;91.90
17984;DHT22;9117;52.420;20.728;2023-04-09T01:28:59;7.80;97.50
17984;DHT22;9117;52.420;20.728;2023-04-09T01:31:31;7.90;99.90
17984;DHT22;9117;52.420;20.728;2023-04-09T01:34:01;7.90;99.90
17984;DHT22;9117;52.420;20.728;2023-04-09T01:36:31;7.90;99.90
17984;DHT22;9117;52.420;20.728;2023-04-09T01:39:00;7.90;95.40
17984;DHT22;9117;52.420;20.728;2023-04-09T01:41:31;7.80;90.00
17984;DHT22;9117;52.420;20.728;2023-04-09T01:44:02;7.90;70.40
17984;DHT22;9117;52.420;20.728;2023-04-09T01:46:32;7.90;75.10
17984;DHT22;9117;52.420;20.728;2023-04-09T01:49:01;7.90;61.80
17984;DHT22;9117;52.420;20.728;2023-04-09T01:51:29;7.80;77.20
17984;DHT22;9117;52.420;20.728;2023-04-09T01:53:59;7.80;87.00
17984;DHT22;9117;52.420;20.728;2023-04-09T01:56:27;7.80;97.70
17984;DHT22;9117;52.420;20.728;2023-04-09T01:58:55;7.70;93.00
17984;DHT22;9117;52.420;20.728;2023-04-09T02:01:31;7.80;86.20
17984;DHT22;9117;52.420;20.728;2023-04-09T02:04:03;7.80;69.00
17984;DHT22;9117;52.420;20.728;2023-04-09T02:06:37;7.80;62.80
17984;DHT22;9117;52.420;20.728;2023-04-09T02:09:08;7.80;70.50
17984;DHT22;9117;52.420;20.728;2023-04-09T02:11:37;7.90;83.00
17984;DHT22;9117;52.420;20.728;2023-04-09T02:14:08;7.80;70.40
17984;DHT22;9117;52.420;20.728;2023-04-09T02:16:40;7.90;55.70
17984;DHT22;9117;52.420;20.728;2023-04-09T02:19:09;7.90;59.90
17984;DHT22;9117;52.420;20.728;2023-04-09T02:21:37;7.90;48.10
17984;DHT22;9117;52.420;20.728;2023-04-09T02:24:05;7.90;54.70
17984;DHT22;9117;52.420;20.728;2023-04-09T02:26:33;7.90;80.90
17984;DHT22;9117;52.420;20.728;2023-04-09T02:29:02;7.90;86.00
17984;DHT22;9117;52.420;20.728;2023-04-09T02:31:30;7.90;90.40
17984;DHT22;9117;52.420;20.728;2023-04-09T02:34:00;7.80;99.90
17984;DHT22;9117;52.420;20.728;2023-04-09T02:36:28;7.90;99.90
17984;DHT22;9117;52.420;20.728;2023-04-09T02:38:56;7.40;99.90
17984;DHT22;9117;52.420;20.728;2023-04-09T02:41:25;7.70;99.90
17984;DHT22;9117;52.420;20.728;2023-04-09T02:43:53;7.70;99.90
17984;DHT22;9117;52.420;20.728;2023-04-09T02:46:21;7.70;99.90
17984;DHT22;9117;52.420;20.728;2023-04-09T02:48:49;7.70;99.90
17984;DHT22;9117;52.420;20.728;2023-04-09T02:51:19;7.70;99.90
17984;DHT22;9117;52.420;20.728;2023-04-09T02:53:47;7.60;99.90
17984;DHT22;9117;52.420;20.728;2023-04-09T02:56:15;7.70;99.90
17984;DHT22;9117;52.420;20.728;2023-04-09T02:58:43;7.70;99.90
17984;DHT22;9117;52.420;20.728;2023-04-09T03:01:12;7.60;99.90
17984;DHT22;9117;52.420;20.728;2023-04-09T03:03:40;7.60;99.90
17984;DHT22;9117;52.420;20.728;2023-04-09T03:06:09;7.60;99.90
17984;DHT22;9117;52.420;20.728;2023-04-09T03:08:38;7.60;99.90
17984;DHT22;9117;52.420;20.728;2023-04-09T03:11:06;7.60;99.90
17984;DHT22;9117;52.420;20.728;2023-04-09T03:13:34;7.60;99.90
17984;DHT22;9117;52.420;20.728;2023-04-09T03:16:03;7.60;99.90
17984;DHT22;9117;52.420;20.728;2023-04-09T03:18:31;7.60;99.90
17984;DHT22;9117;52.420;20.728;2023-04-09T03:21:04;7.60;99.90
17984;DHT22;9117;52.420;20.728;2023-04-09T03:23:32;7.50;99.90
17984;DHT22;9117;52.420;20.728;2023-04-09T03:26:03;7.50;99.90
17984;DHT22;9117;52.420;20.728;2023-04-09T03:28:31;7.60;99.90
17984;DHT22;9117;52.420;20.728;2023-04-09T03:31:00;7.60;99.90
17984;DHT22;9117;52.420;20.728;2023-04-09T03:33:28;7.60;99.90
17984;DHT22;9117;52.420;20.728;2023-04-09T03:35:56;7.60;99.90
17984;DHT22;9117;52.420;20.728;2023-04-09T03:38:24;7.60;99.90
17984;DHT22;9117;52.420;20.728;2023-04-09T03:40:52;7.60;99.90
17984;DHT22;9117;52.420;20.728;2023-04-09T03:43:22;7.60;99.90
17984;DHT22;9117;52.420;20.728;2023-04-09T03:45:50;7.60;99.90
17984;DHT22;9117;52.420;20.728;2023-04-09T03:48:18;7.60;99.90
17984;DHT22;9117;52.420;20.728;2023-04-09T03:50:46;7.60;99.90
17984;DHT22;9117;52.420;20.728;2023-04-09T03:53:14;7.70;99.90
17984;DHT22;9117;52.420;20.728;2023-04-09T03:55:43;7.60;99.90
17984;DHT22;9117;52.420;20.728;2023-04-09T03:58:11;7.60;99.90
17984;DHT22;9117;52.420;20.728;2023-04-09T04:00:40;7.50;99.90
17984;DHT22;9117;52.420;20.728;2023-04-09T04:03:10;7.50;99.90
17984;DHT22;9117;52.420;20.728;2023-04-09T04:05:40;7.50;99.90
17984;DHT22;9117;52.420;20.728;2023-04-09T04:08:08;7.50;99.90
17984;DHT22;9117;52.420;20.728;2023-04-09T04:10:37;7.50;99.90
17984;DHT22;9117;52.420;20.728;2023-04-09T04:13:05;7.50;99.90
17984;DHT22;9117;52.420;20.728;2023-04-09T04:15:39;7.50;99.90
17984;DHT22;9117;52.420;20.728;2023-04-09T04:18:08;7.40;99.90
17984;DHT22;9117;52.420;20.728;2023-04-09T04:20:37;7.40;99.90
17984;DHT22;9117;52.420;20.728;2023-04-09T04:23:05;7.40;99.90
17984;DHT22;9117;52.420;20.728;2023-04-09T04:25:33;7.40;99.90
17984;DHT22;9117;52.420;20.728;2023-04-09T04:28:01;7.40;99.90
17984;DHT22;9117;52.420;20.728;2023-04-09T04:30:29;7.40;99.90
17984;DHT22;9117;52.420;20.728;2023-04-09T04:32:59;7.30;99.90
17984;DHT22;9117;52.420;20.728;2023-04-09T04:35:27;7.30;99.90
17984;DHT22;9117;52.420;20.728;2023-04-09T04:37:55;7.40;99.90
17984;DHT22;9117;52.420;20.728;2023-04-09T04:40:24;7.30;99.90
17984;DHT22;9117;52.420;20.728;2023-04-09T04:42:52;7.40;99.90
17984;DHT22;9117;52.420;20.728;2023-04-09T04:45:20;7.40;99.90
17984;DHT22;9117;52.420;20.728;2023-04-09T04:47:48;7.40;99.90
17984;DHT22;9117;52.420;20.728;2023-04-09T04:50:18;7.40;99.90
17984;DHT22;9117;52.420;20.728;2023-04-09T04:52:46;7.40;99.90
17984;DHT22;9117;52.420;20.728;2023-04-09T04:55:14;7.40;99.90
17984;DHT22;9117;52.420;20.728;2023-04-09T04:57:42;7.40;99.90
17984;DHT22;9117;52.420;20.728;2023-04-09T05:00:12;7.40;99.90
17984;DHT22;9117;52.420;20.728;2023-04-09T05:02:40;7.40;99.90
17984;DHT22;9117;52.420;20.728;2023-04-09T05:05:08;7.50;99.90
17984;DHT22;9117;52.420;20.728;2023-04-09T05:07:38;7.50;99.90
17984;DHT22;9117;52.420;20.728;2023-04-09T05:10:07;7.60;99.90
17984;DHT22;9117;52.420;20.728;2023-04-09T05:12:36;7.60;99.90
17984;DHT22;9117;52.420;20.728;2023-04-09T05:15:05;7.70;99.90
17984;DHT22;9117;52.420;20.728;2023-04-09T05:17:33;7.80;99.90
17984;DHT22;9117;52.420;20.728;2023-04-09T05:20:02;7.80;99.90
17984;DHT22;9117;52.420;20.728;2023-04-09T05:22:30;7.80;99.90
17984;DHT22;9117;52.420;20.728;2023-04-09T05:25:00;7.80;99.90
17984;DHT22;9117;52.420;20.728;2023-04-09T05:27:28;7.90;99.90
17984;DHT22;9117;52.420;20.728;2023-04-09T05:29:57;7.90;99.90
17984;DHT22;9117;52.420;20.728;2023-04-09T05:32:26;7.90;99.90
17984;DHT22;9117;52.420;20.728;2023-04-09T05:34:55;7.90;99.90
17984;DHT22;9117;52.420;20.728;2023-04-09T05:37:23;8.00;99.90
17984;DHT22;9117;52.420;20.728;2023-04-09T05:39:51;8.10;99.90
17984;DHT22;9117;52.420;20.728;2023-04-09T05:42:21;8.10;99.90
17984;DHT22;9117;52.420;20.728;2023-04-09T05:44:49;8.20;99.90
17984;DHT22;9117;52.420;20.728;2023-04-09T05:47:17;8.20;99.90
17984;DHT22;9117;52.420;20.728;2023-04-09T05:49:45;8.30;99.90
17984;DHT22;9117;52.420;20.728;2023-04-09T05:52:14;8.30;99.90
17984;DHT22;9117;52.420;20.728;2023-04-09T05:54:43;8.40;99.90
17984;DHT22;9117;52.420;20.728;2023-04-09T05:57:11;8.40;99.90
17984;DHT22;9117;52.420;20.728;2023-04-09T05:59:40;8.50;99.90
17984;DHT22;9117;52.420;20.728;2023-04-09T06:02:08;8.40;99.90
17984;DHT22;9117;52.420;20.728;2023-04-09T06:04:37;8.50;99.90
17984;DHT22;9117;52.420;20.728;2023-04-09T06:07:05;8.50;99.90
17984;DHT22;9117;52.420;20.728;2023-04-09T06:09:33;8.50;99.90
17984;DHT22;9117;52.420;20.728;2023-04-09T06:12:01;8.40;92.80
17984;DHT22;9117;52.420;20.728;2023-04-09T06:14:30;8.50;99.90
17984;DHT22;9117;52.420;20.728;2023-04-09T06:17:00;8.60;99.90
17984;DHT22;9117;52.420;20.728;2023-04-09T06:19:29;8.60;99.50
17984;DHT22;9117;52.420;20.728;2023-04-09T06:21:57;8.60;97.30
17984;DHT22;9117;52.420;20.728;2023-04-09T06:24:25;8.50;90.60
17984;DHT22;9117;52.420;20.728;2023-04-09T06:26:53;8.60;95.60
17984;DHT22;9117;52.420;20.728;2023-04-09T06:29:21;8.60;98.70
17984;DHT22;9117;52.420;20.728;2023-04-09T06:31:50;8.60;99.90
17984;DHT22;9117;52.420;20.728;2023-04-09T06:34:19;8.50;92.10
17984;DHT22;9117;52.420;20.728;2023-04-09T06:36:48;8.60;79.60
17984;DHT22;9117;52.420;20.728;2023-04-09T06:39:16;8.60;74.60
17984;DHT22;9117;52.420;20.728;2023-04-09T06:41:44;8.80;99.80
17984;DHT22;9117;52.420;20.728;2023-04-09T06:44:12;8.90;81.30
17984;DHT22;9117;52.420;20.728;2023-04-09T06:46:40;9.00;63.10
17984;DHT22;9117;52.420;20.728;2023-04-09T06:49:09;9.20;54.50
17984;DHT22;9117;52.420;20.728;2023-04-09T06:51:38;9.30;53.80
17984;DHT22;9117;52.420;20.728;2023-04-09T06:54:06;9.40;49.90
17984;DHT22;9117;52.420;20.728;2023-04-09T06:56:34;9.50;40.40
17984;DHT22;9117;52.420;20.728;2023-04-09T06:59:03;9.60;24.30
17984;DHT22;9117;52.420;20.728;2023-04-09T07:01:31;9.70;27.40
17984;DHT22;9117;52.420;20.728;2023-04-09T07:04:01;9.80;27.90
17984;DHT22;9117;52.420;20.728;2023-04-09T07:06:29;9.90;23.70
17984;DHT22;9117;52.420;20.728;2023-04-09T07:08:59;10.00;6.00
17984;DHT22;9117;52.420;20.728;2023-04-09T07:11:27;9.90;1.00
17984;DHT22;9117;52.420;20.728;2023-04-09T07:13:55;10.00;15.20
17984;DHT22;9117;52.420;20.728;2023-04-09T07:16:23;10.20;1.00
17984;DHT22;9117;52.420;20.728;2023-04-09T07:18:51;10.20;11.30
17984;DHT22;9117;52.420;20.728;2023-04-09T07:21:20;10.20;8.60
17984;DHT22;9117;52.420;20.728;2023-04-09T07:23:48;10.00;2.40
17984;DHT22;9117;52.420;20.728;2023-04-09T07:26:18;10.10;3.10
17984;DHT22;9117;52.420;20.728;2023-04-09T07:28:47;10.20;1.00
17984;DHT22;9117;52.420;20.728;2023-04-09T07:31:15;10.30;6.30
17984;DHT22;9117;52.420;20.728;2023-04-09T07:33:43;10.40;1.60
17984;DHT22;9117;52.420;20.728;2023-04-09T07:36:11;10.30;1.00
17984;DHT22;9117;52.420;20.728;2023-04-09T07:38:40;10.10;6.50
17984;DHT22;9117;52.420;20.728;2023-04-09T07:41:09;10.30;4.30
17984;DHT22;9117;52.420;20.728;2023-04-09T07:43:39;10.30;7.90
17984;DHT22;9117;52.420;20.728;2023-04-09T07:46:08;10.30;1.00
17984;DHT22;9117;52.420;20.728;2023-04-09T07:48:36;10.20;5.20
17984;DHT22;9117;52.420;20.728;2023-04-09T07:51:04;10.30;1.60
17984;DHT22;9117;52.420;20.728;2023-04-09T07:53:32;10.50;17.90
17984;DHT22;9117;52.420;20.728;2023-04-09T07:56:01;10.80;1.00
17984;DHT22;9117;52.420;20.728;2023-04-09T07:58:29;11.00;1.00
17984;DHT22;9117;52.420;20.728;2023-04-09T08:00:58;11.00;1.00
17984;DHT22;9117;52.420;20.728;2023-04-09T08:03:27;10.80;1.00
17984;DHT22;9117;52.420;20.728;2023-04-09T08:05:55;11.10;1.00
17984;DHT22;9117;52.420;20.728;2023-04-09T08:08:23;11.20;1.00
17984;DHT22;9117;52.420;20.728;2023-04-09T08:10:52;11.40;1.00
17984;DHT22;9117;52.420;20.728;2023-04-09T08:13:22;11.50;1.00
17984;DHT22;9117;52.420;20.728;2023-04-09T08:15:50;11.40;1.00
17984;DHT22;9117;52.420;20.728;2023-04-09T08:18:20;11.40;1.00
17984;DHT22;9117;52.420;20.728;2023-04-09T08:20:48;11.30;1.00
17984;DHT22;9117;52.420;20.728;2023-04-09T08:23:16;11.40;1.00
17984;DHT22;9117;52.420;20.728;2023-04-09T08:25:45;11.60;1.00
17984;DHT22;9117;52.420;20.728;2023-04-09T08:28:13;11.50;1.00
17984;DHT22;9117;52.420;20.728;2023-04-09T08:30:41;11.50;1.00
17984;DHT22;9117;52.420;20.728;2023-04-09T08:33:10;11.80;1.00
17984;DHT22;9117;52.420;20.728;2023-04-09T08:35:40;11.90;1.00
17984;DHT22;9117;52.420;20.728;2023-04-09T08:38:09;12.10;1.00
17984;DHT22;9117;52.420;20.728;2023-04-09T08:40:37;12.00;1.00
17984;DHT22;9117;52.420;20.728;2023-04-09T08:43:06;12.00;1.00
17984;DHT22;9117;52.420;20.728;2023-04-09T08:45:35;12.20;1.00
17984;DHT22;9117;52.420;20.728;2023-04-09T08:48:04;12.20;1.00
17984;DHT22;9117;52.420;20.728;2023-04-09T08:50:35;12.30;1.00
17984;DHT22;9117;52.420;20.728;2023-04-09T08:53:07;12.50;1.00
17984;DHT22;9117;52.420;20.728;2023-04-09T08:55:37;12.50;5.60
17984;DHT22;9117;52.420;20.728;2023-04-09T08:58:05;12.70;1.00
17984;DHT22;9117;52.420;20.728;2023-04-09T09:00:35;12.60;1.00
17984;DHT22;9117;52.420;20.728;2023-04-09T09:03:05;12.80;1.00
17984;DHT22;9117;52.420;20.728;2023-04-09T09:05:35;13.00;3.70
17984;DHT22;9117;52.420;20.728;2023-04-09T09:08:06;13.20;1.00
17984;DHT22;9117;52.420;20.728;2023-04-09T09:10:38;13.30;6.20
17984;DHT22;9117;52.420;20.728;2023-04-09T09:13:20;13.30;1.00
17984;DHT22;9117;52.420;20.728;2023-04-09T09:15:50;13.30;1.00
17984;DHT22;9117;52.420;20.728;2023-04-09T09:18:21;13.30;1.00
17984;DHT22;9117;52.420;20.728;2023-04-09T09:21:09;13.00;1.00
17984;DHT22;9117;52.420;20.728;2023-04-09T09:23:39;12.90;1.00
17984;DHT22;9117;52.420;20.728;2023-04-09T09:26:12;13.00;1.00
17984;DHT22;9117;52.420;20.728;2023-04-09T09:28:42;13.20;1.00
17984;DHT22;9117;52.420;20.728;2023-04-09T09:31:11;13.30;14.90
17984;DHT22;9117;52.420;20.728;2023-04-09T09:33:40;13.40;18.20
17984;DHT22;9117;52.420;20.728;2023-04-09T09:36:08;13.30;11.60
17984;DHT22;9117;52.420;20.728;2023-04-09T09:38:52;13.40;13.30
17984;DHT22;9117;52.420;20.728;2023-04-09T09:41:22;13.20;10.50
17984;DHT22;9117;52.420;20.728;2023-04-09T09:43:50;13.10;1.00
17984;DHT22;9117;52.420;20.728;2023-04-09T09:46:20;13.20;1.00
17984;DHT22;9117;52.420;20.728;2023-04-09T09:48:48;12.90;2.70
17984;DHT22;9117;52.420;20.728;2023-04-09T09:51:18;12.80;1.00
17984;DHT22;9117;52.420;20.728;2023-04-09T09:53:46;12.90;1.00
17984;DHT22;9117;52.420;20.728;2023-04-09T09:56:22;12.90;1.00
17984;DHT22;9117;52.420;20.728;2023-04-09T09:58:55;12.90;1.00
17984;DHT22;9117;52.420;20.728;2023-04-09T10:01:27;12.60;2.10
17984;DHT22;9117;52.420;20.728;2023-04-09T10:03:56;12.80;1.00
17984;DHT22;9117;52.420;20.728;2023-04-09T10:06:27;12.70;1.00
17984;DHT22;9117;52.420;20.728;2023-04-09T10:08:57;12.80;1.00
17984;DHT22;9117;52.420;20.728;2023-04-09T10:11:27;12.90;1.00
17984;DHT22;9117;52.420;20.728;2023-04-09T10:14:01;12.90;1.30
17984;DHT22;9117;52.420;20.728;2023-04-09T10:16:34;13.00;1.00
17984;DHT22;9117;52.420;20.728;2023-04-09T10:19:07;12.50;3.90
17984;DHT22;9117;52.420;20.728;2023-04-09T10:21:49;12.20;2.60
17984;DHT22;9117;52.420;20.728;2023-04-09T10:24:23;12.30;6.90
17984;DHT22;9117;52.420;20.728;2023-04-09T10:27:04;12.30;11.60
17984;DHT22;9117;52.420;20.728;2023-04-09T10:29:43;12.40;1.00
17984;DHT22;9117;52.420;20.728;2023-04-09T10:32:18;12.50;8.80
17984;DHT22;9117;52.420;20.728;2023-04-09T10:34:50;12.20;14.50
17984;DHT22;9117;52.420;20.728;2023-04-09T10:37:24;12.30;1.00
17984;DHT22;9117;52.420;20.728;2023-04-09T10:39:53;12.30;8.40
17984;DHT22;9117;52.420;20.728;2023-04-09T10:42:28;12.60;5.70
17984;DHT22;9117;52.420;20.728;2023-04-09T10:45:05;12.70;1.00
17984;DHT22;9117;52.420;20.728;2023-04-09T10:47:38;13.00;5.00
17984;DHT22;9117;52.420;20.728;2023-04-09T10:50:18;13.10;7.20
17984;DHT22;9117;52.420;20.728;2023-04-09T10:52:58;13.30;8.80
17984;DHT22;9117;52.420;20.728;2023-04-09T10:55:33;13.30;6.20
17984;DHT22;9117;52.420;20.728;2023-04-09T10:58:04;13.60;12.90
17984;DHT22;9117;52.420;20.728;2023-04-09T11:00:39;13.80;1.00
17984;DHT22;9117;52.420;20.728;2023-04-09T11:03:27;13.90;14.10
17984;DHT22;9117;52.420;20.728;2023-04-09T11:06:04;13.80;11.20
17984;DHT22;9117;52.420;20.728;2023-04-09T11:08:36;13.80;16.50
17984;DHT22;9117;52.420;20.728;2023-04-09T11:11:05;13.80;18.00
17984;DHT22;9117;52.420;20.728;2023-04-09T11:13:34;14.00;20.70
17984;DHT22;9117;52.420;20.728;2023-04-09T11:16:03;14.20;11.10
17984;DHT22;9117;52.420;20.728;2023-04-09T11:18:33;14.20;16.40
17984;DHT22;9117;52.420;20.728;2023-04-09T11:21:09;14.30;7.50
17984;DHT22;9117;52.420;20.728;2023-04-09T11:23:39;14.30;16.00
17984;DHT22;9117;52.420;20.728;2023-04-09T11:26:09;14.20;11.60
17984;DHT22;9117;52.420;20.728;2023-04-09T11:28:42;14.00;17.00
17984;DHT22;9117;52.420;20.728;2023-04-09T11:31:10;13.70;7.30
17984;DHT22;9117;52.420;20.728;2023-04-09T11:33:38;13.80;1.00
17984;DHT22;9117;52.420;20.728;2023-04-09T11:36:08;13.60;6.50
17984;DHT22;9117;52.420;20.728;2023-04-09T11:38:49;13.50;6.70
17984;DHT22;9117;52.420;20.728;2023-04-09T11:41:35;13.60;5.80
17984;DHT22;9117;52.420;20.728;2023-04-09T11:44:07;13.80;4.60
17984;DHT22;9117;52.420;20.728;2023-04-09T11:46:40;13.70;11.60
17984;DHT22;9117;52.420;20.728;2023-04-09T11:49:13;13.40;24.50
17984;DHT22;9117;52.420;20.728;2023-04-09T11:51:41;13.30;10.10
17984;DHT22;9117;52.420;20.728;2023-04-09T11:54:11;13.60;8.10
17984;DHT22;9117;52.420;20.728;2023-04-09T11:56:41;14.10;8.20
17984;DHT22;9117;52.420;20.728;2023-04-09T11:59:17;14.30;9.50
17984;DHT22;9117;52.420;20.728;2023-04-09T12:01:49;14.40;2.60
17984;DHT22;9117;52.420;20.728;2023-04-09T12:04:22;14.30;7.20
17984;DHT22;9117;52.420;20.728;2023-04-09T12:06:55;14.50;11.50
17984;DHT22;9117;52.420;20.728;2023-04-09T12:09:24;14.80;13.40
17984;DHT22;9117;52.420;20.728;2023-04-09T12:11:52;15.20;14.30
17984;DHT22;9117;52.420;20.728;2023-04-09T12:14:23;15.10;22.50
17984;DHT22;9117;52.420;20.728;2023-04-09T12:16:52;14.90;20.40
17984;DHT22;9117;52.420;20.728;2023-04-09T12:19:24;15.20;15.30
17984;DHT22;9117;52.420;20.728;2023-04-09T12:21:56;15.40;18.50
17984;DHT22;9117;52.420;20.728;2023-04-09T12:24:25;15.20;15.00
17984;DHT22;9117;52.420;20.728;2023-04-09T12:26:54;15.30;12.30
17984;DHT22;9117;52.420;20.728;2023-04-09T12:29:25;15.40;9.80
17984;DHT22;9117;52.420;20.728;2023-04-09T12:32:01;15.70;20.80
17984;DHT22;9117;52.420;20.728;2023-04-09T12:34:29;16.10;16.50
17984;DHT22;9117;52.420;20.728;2023-04-09T12:36:58;16.20;13.40
17984;DHT22;9117;52.420;20.728;2023-04-09T12:39:26;16.30;15.20
17984;DHT22;9117;52.420;20.728;2023-04-09T12:41:55;16.00;14.60
17984;DHT22;9117;52.420;20.728;2023-04-09T12:44:25;16.20;15.80
17984;DHT22;9117;52.420;20.728;2023-04-09T12:47:03;17.00;22.20
17984;DHT22;9117;52.420;20.728;2023-04-09T12:49:31;17.50;21.10
17984;DHT22;9117;52.420;20.728;2023-04-09T12:52:05;18.00;37.50
17984;DHT22;9117;52.420;20.728;2023-04-09T12:54:33;18.50;29.00
17984;DHT22;9117;52.420;20.728;2023-04-09T12:57:02;18.60;25.10
17984;DHT22;9117;52.420;20.728;2023-04-09T12:59:33;18.40;32.20
17984;DHT22;9117;52.420;20.728;2023-04-09T13:02:02;18.80;30.40
17984;DHT22;9117;52.420;20.728;2023-04-09T13:04:32;19.50;30.00
17984;DHT22;9117;52.420;20.728;2023-04-09T13:07:04;18.80;45.60
17984;DHT22;9117;52.420;20.728;2023-04-09T13:09:32;19.20;45.20
17984;DHT22;9117;52.420;20.728;2023-04-09T13:12:01;19.60;46.00
17984;DHT22;9117;52.420;20.728;2023-04-09T13:14:34;19.70;44.50
17984;DHT22;9117;52.420;20.728;2023-04-09T13:17:03;19.80;44.60
17984;DHT22;9117;52.420;20.728;2023-04-09T13:19:31;20.40;51.60
17984;DHT22;9117;52.420;20.728;2023-04-09T13:22:01;20.00;46.10
17984;DHT22;9117;52.420;20.728;2023-04-09T13:24:31;20.50;44.20
17984;DHT22;9117;52.420;20.728;2023-04-09T13:26:59;20.40;43.80
17984;DHT22;9117;52.420;20.728;2023-04-09T13:29:27;19.70;46.30
17984;DHT22;9117;52.420;20.728;2023-04-09T13:31:58;19.20;44.80
17984;DHT22;9117;52.420;20.728;2023-04-09T13:34:28;18.80;48.80
17984;DHT22;9117;52.420;20.728;2023-04-09T13:36:56;18.90;45.20
17984;DHT22;9117;52.420;20.728;2023-04-09T13:39:24;19.00;49.10
17984;DHT22;9117;52.420;20.728;2023-04-09T13:41:56;19.40;51.20
17984;DHT22;9117;52.420;20.728;2023-04-09T13:44:24;18.80;52.70
17984;DHT22;9117;52.420;20.728;2023-04-09T13:46:54;18.00;53.20
17984;DHT22;9117;52.420;20.728;2023-04-09T13:49:24;17.90;59.30
17984;DHT22;9117;52.420;20.728;2023-04-09T13:51:53;17.50;55.50
17984;DHT22;9117;52.420;20.728;2023-04-09T13:54:23;17.20;52.20
17984;DHT22;9117;52.420;20.728;2023-04-09T13:56:52;17.10;59.60
17984;DHT22;9117;52.420;20.728;2023-04-09T13:59:20;16.90;55.70
17984;DHT22;9117;52.420;20.728;2023-04-09T14:01:49;16.70;62.70
17984;DHT22;9117;52.420;20.728;2023-04-09T14:04:18;16.60;55.00
17984;DHT22;9117;52.420;20.728;2023-04-09T14:06:47;16.30;56.50
17984;DHT22;9117;52.420;20.728;2023-04-09T14:09:18;16.10;57.40
17984;DHT22;9117;52.420;20.728;2023-04-09T14:11:46;16.00;55.60
17984;DHT22;9117;52.420;20.728;2023-04-09T14:14:15;15.50;57.80
17984;DHT22;9117;52.420;20.728;2023-04-09T14:16:43;15.30;60.90
17984;DHT22;9117;52.420;20.728;2023-04-09T14:19:11;14.90;60.70
17984;DHT22;9117;52.420;20.728;2023-04-09T14:21:40;14.80;62.20
17984;DHT22;9117;52.420;20.728;2023-04-09T14:24:19;14.70;63.70
17984;DHT22;9117;52.420;20.728;2023-04-09T14:26:49;14.70;63.60
17984;DHT22;9117;52.420;20.728;2023-04-09T14:29:19;14.80;60.00
17984;DHT22;9117;52.420;20.728;2023-04-09T14:31:48;14.90;58.00
17984;DHT22;9117;52.420;20.728;2023-04-09T14:34:17;15.10;60.40
17984;DHT22;9117;52.420;20.728;2023-04-09T14:36:48;15.10;59.00
17984;DHT22;9117;52.420;20.728;2023-04-09T14:39:18;15.20;51.60
17984;DHT22;9117;52.420;20.728;2023-04-09T14:41:46;15.20;57.50
17984;DHT22;9117;52.420;20.728;2023-04-09T14:44:14;15.30;56.10
17984;DHT22;9117;52.420;20.728;2023-04-09T14:46:42;15.40;55.80
17984;DHT22;9117;52.420;20.728;2023-04-09T14:49:10;15.20;55.80
17984;DHT22;9117;52.420;20.728;2023-04-09T14:51:38;15.30;57.40
17984;DHT22;9117;52.420;20.728;2023-04-09T14:54:07;15.20;58.40
17984;DHT22;9117;52.420;20.728;2023-04-09T14:56:36;15.20;61.70
17984;DHT22;9117;52.420;20.728;2023-04-09T14:59:04;15.20;57.10
17984;DHT22;9117;52.420;20.728;2023-04-09T15:01:33;15.10;58.80
17984;DHT22;9117;52.420;20.728;2023-04-09T15:04:01;15.10;57.60
17984;DHT22;9117;52.420;20.728;2023-04-09T15:06:29;15.00;58.20
17984;DHT22;9117;52.420;20.728;2023-04-09T15:08:58;14.80;61.40
17984;DHT22;9117;52.420;20.728;2023-04-09T15:11:27;14.70;59.70
17984;DHT22;9117;52.420;20.728;2023-04-09T15:13:56;14.50;57.40
17984;DHT22;9117;52.420;20.728;2023-04-09T15:16:26;14.40;58.60
17984;DHT22;9117;52.420;20.728;2023-04-09T15:18:54;14.30;57.30
17984;DHT22;9117;52.420;20.728;2023-04-09T15:21:25;14.20;64.80
17984;DHT22;9117;52.420;20.728;2023-04-09T15:23:53;14.10;56.30
17984;DHT22;9117;52.420;20.728;2023-04-09T15:26:24;14.10;57.30
17984;DHT22;9117;52.420;20.728;2023-04-09T15:29:00;14.00;51.30
17984;DHT22;9117;52.420;20.728;2023-04-09T15:31:28;14.00;56.50
17984;DHT22;9117;52.420;20.728;2023-04-09T15:33:57;13.90;54.60
17984;DHT22;9117;52.420;20.728;2023-04-09T15:36:25;13.90;50.30
17984;DHT22;9117;52.420;20.728;2023-04-09T15:38:55;13.60;51.20
17984;DHT22;9117;52.420;20.728;2023-04-09T15:41:23;13.50;53.80
17984;DHT22;9117;52.420;20.728;2023-04-09T15:43:52;13.50;48.30
17984;DHT22;9117;52.420;20.728;2023-04-09T15:46:22;13.60;49.70
17984;DHT22;9117;52.420;20.728;2023-04-09T15:48:50;13.60;47.20
17984;DHT22;9117;52.420;20.728;2023-04-09T15:51:19;13.70;44.00
17984;DHT22;9117;52.420;20.728;2023-04-09T15:53:48;13.70;41.60
17984;DHT22;9117;52.420;20.728;2023-04-09T15:56:16;13.60;47.90
17984;DHT22;9117;52.420;20.728;2023-04-09T15:58:45;13.50;45.70